Flight Track Log - Related Links

Times and Time Zones

All times are in EDT time to prevent confusion due to time zone crossing. See the N9009Y flight status page for this flight to view local times or setup timezone preferences in your user account.

Time Position Orientation Groundspeed Altitude Reporting Facility
EDT Latitude Longitude Course Direction KTS MPH feet Rate Location/Type
Fri 09:27:22 AM 26.2428 -80.1042 95° East 94 108 100  Level Miami Center
Fri 09:27:55 AM 26.2411 -80.0833 95° East 102 117 700 1,139 Climbing Miami Center
Fri 09:28:41 AM 26.2375 -80.0625 101° East 96 110 1,600 1,000 Climbing Miami Center
Fri 09:28:55 AM 26.2397 -80.0556 70° East 102 117 1,700 590 Climbing Miami Center
Fri 09:29:42 AM 26.2339 -80.0322 106° East 96 110 2,200 600 Climbing Miami Center
Fri 09:29:55 AM 26.2361 -80.0231 75° East 95 109 2,300 590 Climbing Miami Center
Fri 09:30:43 AM 26.2283 -80.0042 115° Southeast 96 110 2,800 600 Climbing Miami Center
Fri 09:30:55 AM 26.2283 -79.9950 90° East 95 109 2,900 689 Climbing Miami Center
Fri 09:31:44 AM 26.2247 -79.9717 100° East 100 115 3,500 700 Climbing Miami Center
Fri 09:31:55 AM 26.2292 -79.9650 53° Northeast 95 109 3,600 592 Climbing Miami Center
Fri 09:32:55 AM 26.2297 -79.9372 89° East 104 120 4,200 600 Climbing Miami Center
Fri 09:33:55 AM 26.2261 -79.9047 97° East 104 120 4,800 550 Climbing Miami Center
Fri 09:34:55 AM 26.2225 -79.8744 98° East 104 120 5,300 500 Climbing Miami Center
Fri 09:35:55 AM 26.2150 -79.8417 104° East 104 120 5,800 450 Climbing Miami Center
Fri 09:36:55 AM 26.2094 -79.8047 100° East 104 120 6,200 500 Climbing Miami Center
Fri 09:37:55 AM 26.2039 -79.7650 99° East 116 133 6,800 400 Climbing Miami Center
Fri 09:38:55 AM 26.1942 -79.7256 105° East 123 142 7,000 150 Climbing Miami Center
Fri 09:39:55 AM 26.1806 -79.6811 109° East 137 158 7,100  Climbing Miami Center
Fri 09:40:55 AM 26.1689 -79.6300 104° East 152 175 7,000  Descending Miami Center
Fri 09:41:55 AM 26.1511 -79.5856 114° Southeast 159 183 7,100 50 Climbing Miami Center
Fri 09:42:55 AM 26.1247 -79.5364 121° Southeast 164 189 7,100 -50 Level Miami Center
Fri 09:43:55 AM 26.1025 -79.4897 118° Southeast 170 196 7,000  Descending Miami Center
Fri 09:44:55 AM 26.0806 -79.4428 117° Southeast 170 196 7,100  Climbing Miami Center
Fri 09:45:55 AM 26.0583 -79.3939 117° Southeast 170 196 7,000 -50 Descending Miami Center
Fri 09:46:55 AM 26.0361 -79.3472 118° Southeast 170 196 7,000  Level Miami Center
Fri 09:47:55 AM 26.0161 -79.2981 114° Southeast 165 190 7,000 50 Level Miami Center
Fri 09:48:55 AM 25.9958 -79.2583 120° Southeast 171 197 7,100 50 Climbing Miami Center
Fri 09:49:55 AM 25.9717 -79.2047 117° Southeast 171 197 7,100 -50 Level Miami Center
Fri 09:50:55 AM 25.9494 -79.1581 118° Southeast 166 191 7,000 -50 Descending Miami Center
Fri 09:51:55 AM 25.9231 -79.1139 124° Southeast 166 191 7,000  Level Miami Center
Fri 09:52:55 AM 25.8964 -79.0672 122° Southeast 166 191 7,000  Level Miami Center
Fri 09:53:55 AM 25.8742 -79.0228 119° Southeast 174 200 7,000 -50 Level Miami Center
Fri 09:54:55 AM 25.8392 -78.9783 131° Southeast 174 200 6,900 -50 Descending Miami Center
Fri 09:55:55 AM 25.8086 -78.9317 126° Southeast 179 206 6,900 50 Level Miami Center
Fri 09:56:55 AM 25.7800 -78.8919 129° Southeast 179 206 7,000 50 Climbing Miami Center
Fri 09:57:55 AM 25.7469 -78.8522 133° Southeast 174 200 7,000 -50 Level Miami Center
Fri 09:58:55 AM 25.7225 -78.8056 120° Southeast 174 200 6,900  Descending Miami Center
Fri 09:59:55 AM 25.6981 -78.7592 120° Southeast 174 200 7,000 50 Climbing Miami Center
Fri 10:00:55 AM 25.6672 -78.7264 136° Southeast 174 200 7,000  Level Miami Center
Fri 10:01:55 AM 25.6406 -78.6797 122° Southeast 174 200 7,000  Level Miami Center
Fri 10:02:55 AM 25.6161 -78.6333 120° Southeast 174 200 7,000 -50 Level Miami Center
Fri 10:03:55 AM 25.5853 -78.5892 128° Southeast 174 200 6,900 -50 Descending Miami Center
Fri 10:04:55 AM 25.5567 -78.5450 126° Southeast 174 200 6,900 -50 Level Miami Center
Fri 10:05:55 AM 25.5342 -78.4986 118° Southeast 174 200 6,800 -50 Descending Miami Center
Fri 10:06:55 AM 25.5075 -78.4567 125° Southeast 174 200 6,800 50 Level Miami Center
Fri 10:07:55 AM 25.4786 -78.4128 126° Southeast 174 200 6,900 100 Climbing Miami Center
Fri 10:08:55 AM 25.4583 -78.3642 115° Southeast 174 200 7,000 50 Climbing Miami Center
Fri 10:09:55 AM 25.4356 -78.3178 119° Southeast 169 194 7,000 50 Level Miami Center
Fri 10:10:55 AM 25.4111 -78.2739 122° Southeast 169 194 7,100 50 Climbing Miami Center
Fri 10:11:55 AM 25.3886 -78.2275 118° Southeast 169 194 7,100  Level Miami Center
Fri 10:12:55 AM 25.3617 -78.1836 124° Southeast 169 194 7,100  Level Miami Center
Fri 10:13:55 AM 25.3369 -78.1372 121° Southeast 169 194 7,100  Level Miami Center
Fri 10:14:55 AM 25.3122 -78.0933 122° Southeast 169 194 7,100  Level Miami Center
Fri 10:15:55 AM 25.2833 -78.0517 127° Southeast 169 194 7,100  Level Miami Center
Fri 10:23:31 AM 25.0914 -77.7100 123° Southeast 175 201 7,100 12 Level Miami Center
Fri 10:24:31 AM 25.0686 -77.6664 120° Southeast 175 201 7,200 -50 Climbing Miami Center
Fri 10:25:31 AM 25.0397 -77.6228 126° Southeast 175 201 7,000 -100 Descending Miami Center
Fri 10:26:00 AM 25.0359 -77.6291 123° Southeast  Level FlightAware Approximate
Fri 10:26:31 AM 25.0106 -77.5789 126° Southeast 175 201 7,000  Level Miami Center
Fri 10:27:00 AM 25.0113 -77.5873 123° Southeast  Level FlightAware Approximate
Fri 10:27:31 AM 24.9836 -77.5328 123° Southeast 175 201 7,000  Level Miami Center
Fri 10:28:00 AM 24.9867 -77.5455 123° Southeast  Level FlightAware Approximate
Fri 10:28:31 AM 24.9525 -77.4914 130° Southeast 175 201 7,000  Level Miami Center
Fri 10:29:00 AM 24.9621 -77.5037 123° Southeast  Level FlightAware Approximate
Fri 10:29:31 AM 24.9275 -77.4478 122° Southeast 175 201 7,100  Level Miami Center
Fri 10:30:31 AM 24.8986 -77.4042 126° Southeast 175 201 7,000  Descending Miami Center
Fri 10:31:31 AM 24.8694 -77.3628 128° Southeast 175 201 7,100 50 Climbing Miami Center
Fri 10:32:31 AM 24.8403 -77.3192 126° Southeast 175 201 7,100  Level Miami Center
Fri 10:33:31 AM 24.8153 -77.2733 121° Southeast 175 201 7,100 -50 Level Miami Center
Fri 10:34:31 AM 24.7903 -77.2275 121° Southeast 175 201 7,000 -50 Descending Miami Center
Fri 10:35:31 AM 24.7653 -77.1839 122° Southeast 175 201 7,000  Level Miami Center
Fri 10:36:31 AM 24.7342 -77.1356 125° Southeast 175 201 7,000  Level Miami Center
Fri 10:37:31 AM 24.7069 -77.0922 125° Southeast 175 201 7,000 50 Level Miami Center
Fri 10:38:31 AM 24.6736 -77.0533 133° Southeast 175 201 7,100 50 Climbing Miami Center
Fri 10:39:31 AM 24.6444 -77.0144 130° Southeast 170 196 7,100 -50 Level Miami Center
Fri 10:40:31 AM 24.6153 -76.9753 129° Southeast 170 196 7,000 -50 Descending Miami Center
Fri 10:41:31 AM 24.5858 -76.9319 127° Southeast 165 190 7,000  Level Miami Center
Fri 10:42:31 AM 24.5589 -76.8931 127° Southeast 165 190 7,000 50 Level Miami Center
Fri 10:43:31 AM 24.5336 -76.8497 123° Southeast 165 190 7,100 50 Climbing Miami Center
Fri 10:44:31 AM 24.5067 -76.8064 124° Southeast 170 196 7,100  Level Miami Center
Fri 10:45:31 AM 24.4794 -76.7675 128° Southeast 170 196 7,100 -50 Level Miami Center
Fri 10:46:31 AM 24.4542 -76.7219 121° Southeast 170 196 7,000 -50 Descending Miami Center
Fri 10:47:31 AM 24.4250 -76.6808 128° Southeast 175 201 7,000  Level Miami Center
Fri 10:48:31 AM 24.3997 -76.6397 124° Southeast 175 201 7,000  Level Miami Center
Fri 10:49:31 AM 24.3725 -76.6011 128° Southeast 175 201 7,000  Level Miami Center
Fri 10:50:31 AM 24.3494 -76.5600 122° Southeast 175 201 7,000  Level Miami Center
Fri 10:51:31 AM 24.3244 -76.5167 122° Southeast 175 201 7,000  Level Miami Center
Fri 10:52:31 AM 24.2969 -76.4736 125° Southeast 175 201 7,000 50 Level Miami Center
Fri 10:53:31 AM 24.2697 -76.4325 126° Southeast 175 201 7,100  Climbing Miami Center
Fri 10:54:31 AM 24.2383 -76.3939 132° Southeast 175 201 7,000  Descending Miami Center
Fri 10:55:31 AM 24.2111 -76.3531 126° Southeast 170 196 7,100 50 Climbing Miami Center
Fri 10:56:31 AM 24.1858 -76.3122 124° Southeast 170 196 7,100  Level Miami Center
Fri 10:57:31 AM 24.1606 -76.2689 123° Southeast 170 196 7,100 -50 Level Miami Center
Fri 10:58:31 AM 24.1353 -76.2303 126° Southeast 170 196 7,000 -50 Descending Miami Center
Fri 10:59:31 AM 24.1058 -76.1872 127° Southeast 170 196 7,000  Level Miami Center
Fri 11:00:31 AM 24.0806 -76.1486 126° Southeast 170 196 7,000  Level Miami Center
Fri 11:01:31 AM 24.0531 -76.1078 126° Southeast 170 196 7,000 50 Level Miami Center
Fri 11:02:31 AM 24.0258 -76.0694 128° Southeast 170 196 7,100 50 Climbing Miami Center
Fri 11:03:31 AM 24.0006 -76.0286 124° Southeast 165 190 7,100 -100 Level Miami Center
Fri 11:04:31 AM 23.9731 -75.9878 126° Southeast 165 190 6,900 -150 Descending Miami Center
Fri 11:05:31 AM 23.9436 -75.9494 130° Southeast 165 190 6,800 -250 Descending Miami Center
Fri 11:06:31 AM 23.9100 -75.9042 129° Southeast 165 190 6,400 -550 Descending Miami Center
Fri 11:07:31 AM 23.8783 -75.8636 130° Southeast 165 190 5,700 -600 Descending Miami Center
Fri 11:08:31 AM 23.8489 -75.8275 132° Southeast 165 190 5,200 -700 Descending Miami Center
Fri 11:09:31 AM 23.8233 -75.7822 122° Southeast 165 190 4,300 -900 Descending Miami Center
Fri 11:11:00 AM 23.7970 -75.7163 114° Southeast  Level FlightAware Approximate
Fri 11:18:00 AM 23.6650 -75.4058 126° Southeast  Level FlightAware Approximate
Fri 11:19:00 AM 23.6389 -75.3666 126° Southeast  Level FlightAware Approximate
Fri 11:20:00 AM 23.6124 -75.3277 129° Southeast  Level FlightAware Approximate
Fri 11:21:00 AM 23.5843 -75.2902 129° Southeast  Level FlightAware Approximate
Fri 11:22:00 AM 23.5830 -75.2689 129° Southeast  Level Estimated
Fri 11:23:00 AM 23.5830 -75.2689 173° South  Level Estimated
Fri 11:24:00 AM 23.5830 -75.2689 129° Southeast  Level Estimated
Fri 11:25:00 AM 23.5830 -75.2689 173° South  Level Estimated
Fri 11:26:00 AM 23.5830 -75.2689 129° Southeast  Level Estimated
Fri 11:27:00 AM 23.5830 -75.2689 173° South  Level Estimated
Fri 11:28:00 AM 23.5830 -75.2689 129° Southeast  Level Estimated
Fri 11:29:00 AM 23.5830 -75.2689 173° South  Level Estimated
Fri 11:30:00 AM 23.5830 -75.2689 129° Southeast  Level Estimated
Fri 11:31:00 AM 23.5830 -75.2689 173° South  Level Estimated
Fri 11:32:00 AM 23.5830 -75.2689 129° Southeast  Level Estimated
Fri 11:33:00 AM 23.5830 -75.2689 173° South  Level Estimated
Fri 11:34:00 AM 23.5830 -75.2689 129° Southeast  Level Estimated
Fri 11:35:00 AM 23.5830 -75.2689 173° South  Level Estimated
Fri 11:36:00 AM 23.5830 -75.2689 129° Southeast  Level Estimated

Login

Don't have an account? Register now (free) for customized features, flight alerts, and more!